Time;durP1;ratioP1;P1;durP2;ratioP2;P2;SDS_P1;SDS_P2;PMS_P1;PMS_P2;Temp;Humidity;BMP_temperature;BMP_pressure;BME280_temperature;BME280_humidity;BME280_pressure;Samples;Min_cycle;Max_cycle;Signal;HPM_P1;HPM_P2
2021/09/07 00:02:04;;;;;;;13.27;12.27;;;22.70;36.00;;;;;;4956556;28;20195;-67
2021/09/07 00:04:30;;;;;;;13.53;12.37;;;22.70;36.00;;;;;;4956251;29;20183;-69
2021/09/07 00:06:59;;;;;;;12.70;11.70;;;22.70;36.00;;;;;;4956415;28;20167;-67
2021/09/07 00:09:25;;;;;;;13.73;12.60;;;22.70;36.00;;;;;;4956110;28;20618;-67
2021/09/07 00:11:50;;;;;;;13.10;11.90;;;22.70;36.00;;;;;;4956263;29;20527;-67
2021/09/07 00:14:16;;;;;;;13.20;12.17;;;22.60;36.00;;;;;;4956080;28;20190;-67
2021/09/07 00:16:42;;;;;;;14.00;12.80;;;22.70;36.00;;;;;;4956180;28;20682;-67
2021/09/07 00:19:08;;;;;;;13.83;12.63;;;22.70;36.00;;;;;;4955786;28;20187;-67
2021/09/07 00:21:34;;;;;;;13.93;12.83;;;22.70;36.00;;;;;;4956086;28;20682;-67
2021/09/07 00:23:59;;;;;;;13.30;12.30;;;22.60;36.00;;;;;;4955969;29;20411;-67
2021/09/07 00:26:25;;;;;;;13.00;11.90;;;22.70;36.10;;;;;;4956066;29;20676;-67
2021/09/07 00:28:50;;;;;;;13.10;12.00;;;22.70;36.10;;;;;;4955768;29;20176;-67
2021/09/07 00:31:16;;;;;;;13.57;12.20;;;22.60;36.00;;;;;;4955710;29;20203;-67
2021/09/07 00:33:41;;;;;;;12.43;11.40;;;22.70;36.10;;;;;;4955937;29;20189;-67
2021/09/07 00:36:07;;;;;;;12.87;11.90;;;22.70;36.10;;;;;;4954688;29;20547;-66
2021/09/07 00:38:32;;;;;;;13.20;12.10;;;22.60;36.00;;;;;;4955689;28;20182;-67
2021/09/07 00:40:58;;;;;;;12.27;11.30;;;22.60;36.10;;;;;;4955632;29;20191;-67
2021/09/07 00:43:23;;;;;;;12.80;11.70;;;22.60;36.10;;;;;;4955680;29;20734;-67
2021/09/07 00:45:49;;;;;;;12.40;11.30;;;22.60;36.10;;;;;;4955516;29;20583;-67
2021/09/07 00:48:14;;;;;;;12.53;11.43;;;22.60;36.10;;;;;;4955577;29;20203;-67
2021/09/07 00:50:40;;;;;;;13.60;12.50;;;22.60;36.10;;;;;;4955210;29;20223;-67
2021/09/07 00:53:06;;;;;;;13.67;12.27;;;22.60;36.10;;;;;;4955591;29;20266;-66
2021/09/07 00:55:32;;;;;;;12.43;11.33;;;22.60;36.10;;;;;;4954977;28;20237;-66
2021/09/07 00:58:01;;;;;;;11.80;10.80;;;22.60;36.10;;;;;;4954969;28;20293;-67
2021/09/07 01:00:26;;;;;;;12.30;11.30;;;22.60;36.10;;;;;;4954924;28;20454;-67
2021/09/07 01:02:52;;;;;;;11.70;10.77;;;22.60;36.10;;;;;;4955495;29;20411;-67
2021/09/07 01:05:18;;;;;;;11.50;10.60;;;22.60;36.10;;;;;;4955184;29;20530;-67
2021/09/07 01:07:43;;;;;;;11.07;10.07;;;22.60;36.10;;;;;;4955341;29;20266;-67
2021/09/07 01:10:09;;;;;;;11.60;10.60;;;22.60;36.10;;;;;;4954866;29;20203;-67
2021/09/07 01:12:35;;;;;;;11.97;10.97;;;22.60;36.10;;;;;;4955228;29;20199;-67
2021/09/07 01:15:02;;;;;;;11.43;10.43;;;22.60;36.10;;;;;;4955229;28;20174;-67
2021/09/07 01:17:28;;;;;;;11.47;10.50;;;22.60;36.20;;;;;;4954892;28;20454;-67
2021/09/07 01:19:53;;;;;;;11.80;10.90;;;22.60;36.20;;;;;;4954800;29;20411;-67
2021/09/07 01:22:20;;;;;;;11.90;10.97;;;22.60;36.20;;;;;;4954888;28;20179;-66
2021/09/07 01:24:47;;;;;;;11.23;10.37;;;22.60;36.20;;;;;;4955070;28;20226;-67
2021/09/07 01:27:13;;;;;;;11.83;10.90;;;22.60;36.20;;;;;;4954734;28;20459;-67
2021/09/07 01:29:40;;;;;;;11.87;10.97;;;22.60;36.20;;;;;;4954658;29;20450;-67
2021/09/07 01:32:08;;;;;;;11.30;10.30;;;22.60;36.20;;;;;;4954681;28;20278;-67
2021/09/07 01:34:35;;;;;;;11.43;10.47;;;22.60;36.30;;;;;;4954763;28;20933;-67
2021/09/07 01:37:01;;;;;;;13.07;11.77;;;22.60;36.30;;;;;;4954614;28;20530;-66
2021/09/07 01:39:27;;;;;;;17.90;11.57;;;22.60;36.20;;;;;;4954510;28;20403;-67
2021/09/07 01:41:53;;;;;;;11.83;10.93;;;22.60;36.20;;;;;;4954420;28;20435;-67
2021/09/07 01:44:19;;;;;;;11.87;10.87;;;22.60;36.20;;;;;;4954759;29;20783;-67
2021/09/07 01:46:45;;;;;;;11.40;10.50;;;22.60;36.30;;;;;;4954402;28;20418;-67
2021/09/07 01:49:12;;;;;;;11.90;10.90;;;22.60;36.40;;;;;;4954369;28;20502;-67
2021/09/07 01:51:39;;;;;;;11.50;10.60;;;22.60;36.30;;;;;;4954389;28;20270;-67
2021/09/07 01:54:06;;;;;;;11.93;11.03;;;22.60;36.30;;;;;;4954482;28;20494;-67
2021/09/07 01:56:32;;;;;;;11.47;10.57;;;22.60;36.30;;;;;;4954249;28;20466;-67
2021/09/07 01:58:58;;;;;;;10.43;9.63;;;22.50;36.20;;;;;;4954233;29;20418;-68
2021/09/07 02:01:23;;;;;;;11.93;10.97;;;22.60;36.40;;;;;;4954030;28;20588;-67
2021/09/07 02:03:49;;;;;;;11.57;10.60;;;22.50;36.30;;;;;;4954331;29;20407;-67
2021/09/07 02:06:15;;;;;;;11.13;10.23;;;22.60;36.40;;;;;;4954279;29;20290;-67
2021/09/07 02:08:41;;;;;;;10.50;9.70;;;22.50;36.30;;;;;;4953675;28;20179;-67
2021/09/07 02:11:06;;;;;;;12.10;11.00;;;22.50;36.40;;;;;;4954225;28;20280;-67
2021/09/07 02:13:32;;;;;;;11.27;10.43;;;22.50;36.40;;;;;;4954121;28;20184;-67
2021/09/07 02:15:58;;;;;;;11.57;10.67;;;22.50;36.30;;;;;;4954063;29;20254;-67
2021/09/07 02:18:23;;;;;;;11.00;10.13;;;22.60;36.40;;;;;;4953845;29;20726;-67
2021/09/07 02:20:49;;;;;;;11.00;10.10;;;22.50;36.30;;;;;;4954020;28;20725;-66
2021/09/07 02:23:14;;;;;;;10.00;9.30;;;22.60;36.40;;;;;;4953914;29;20266;-66
2021/09/07 02:25:39;;;;;;;11.73;10.73;;;22.60;36.40;;;;;;4953990;29;20230;-67
2021/09/07 02:28:05;;;;;;;10.77;9.73;;;22.50;36.40;;;;;;4953753;29;20179;-66
2021/09/07 02:30:31;;;;;;;10.60;9.80;;;22.60;36.40;;;;;;4953710;29;20350;-67
2021/09/07 02:32:59;;;;;;;11.73;10.73;;;22.50;36.40;;;;;;4953826;29;20623;-66
2021/09/07 02:35:24;;;;;;;11.83;10.77;;;22.50;36.30;;;;;;4954017;28;20187;-67
2021/09/07 02:37:50;;;;;;;10.10;9.30;;;22.50;36.30;;;;;;4953679;28;20826;-67
2021/09/07 02:40:15;;;;;;;10.77;9.87;;;22.50;36.40;;;;;;4953603;29;20831;-66
2021/09/07 02:42:41;;;;;;;10.63;9.77;;;22.50;36.40;;;;;;4953815;29;20168;-67
2021/09/07 02:45:07;;;;;;;10.53;9.73;;;22.50;36.30;;;;;;4953871;28;20187;-67
2021/09/07 02:47:32;;;;;;;12.03;11.03;;;22.50;36.40;;;;;;4953686;28;20229;-67
2021/09/07 02:49:58;;;;;;;10.90;9.80;;;22.50;36.40;;;;;;4953600;29;20209;-67
2021/09/07 02:52:23;;;;;;;10.30;9.30;;;22.50;36.40;;;;;;4953623;29;20234;-67
2021/09/07 02:54:49;;;;;;;9.10;8.40;;;22.50;36.40;;;;;;4953852;29;20708;-67
2021/09/07 02:57:15;;;;;;;10.67;9.80;;;22.50;36.40;;;;;;4953670;29;20286;-67
2021/09/07 02:59:40;;;;;;;11.10;10.20;;;22.50;36.40;;;;;;4953503;29;20650;-67
2021/09/07 03:02:06;;;;;;;9.60;8.83;;;22.50;36.40;;;;;;4953720;28;20218;-68
2021/09/07 03:04:31;;;;;;;10.23;9.33;;;22.50;36.40;;;;;;4953588;29;20582;-67
2021/09/07 03:06:57;;;;;;;10.60;9.70;;;22.50;36.30;;;;;;4953594;29;20250;-67
2021/09/07 03:09:22;;;;;;;10.53;9.70;;;22.50;36.40;;;;;;4953205;28;20601;-67
2021/09/07 03:11:48;;;;;;;10.27;9.27;;;22.50;36.40;;;;;;4953608;29;20202;-67
2021/09/07 03:14:13;;;;;;;10.40;9.60;;;22.50;36.30;;;;;;4953421;29;20180;-68
2021/09/07 03:16:39;;;;;;;10.47;9.60;;;22.50;36.40;;;;;;4953535;29;20209;-67
2021/09/07 03:19:04;;;;;;;10.80;10.00;;;22.50;36.40;;;;;;4953519;28;20183;-67
2021/09/07 03:21:30;;;;;;;9.93;9.17;;;22.50;36.40;;;;;;4957090;29;20191;-67
2021/09/07 03:23:56;;;;;;;9.60;8.80;;;22.50;36.40;;;;;;4957014;29;20601;-67
2021/09/07 03:26:22;;;;;;;10.00;9.30;;;22.50;36.40;;;;;;4957113;29;20211;-67
2021/09/07 03:28:47;;;;;;;9.73;9.00;;;22.50;36.40;;;;;;4956704;28;20242;-67
2021/09/07 03:31:13;;;;;;;10.47;9.67;;;22.50;36.40;;;;;;4957094;29;20281;-67
2021/09/07 03:33:38;;;;;;;10.80;9.90;;;22.50;36.50;;;;;;4956914;29;20198;-67
2021/09/07 03:36:04;;;;;;;9.90;9.20;;;22.50;36.50;;;;;;4956824;29;20237;-67
2021/09/07 03:38:30;;;;;;;9.60;8.87;;;22.50;36.40;;;;;;4957019;28;20180;-67
2021/09/07 03:40:55;;;;;;;10.60;9.80;;;22.50;36.50;;;;;;4956727;28;20426;-67
2021/09/07 03:43:21;;;;;;;10.67;9.80;;;22.50;36.40;;;;;;4956839;29;20175;-67
2021/09/07 03:45:46;;;;;;;9.17;8.40;;;22.50;36.40;;;;;;4956642;29;20176;-67
2021/09/07 03:48:12;;;;;;;9.60;8.80;;;22.50;37.10;;;;;;4956745;29;20182;-68
2021/09/07 03:50:37;;;;;;;9.30;8.60;;;22.50;36.50;;;;;;4956300;29;20203;-67
2021/09/07 03:53:03;;;;;;;9.57;8.87;;;22.50;36.50;;;;;;4956716;29;20207;-67
2021/09/07 03:55:29;;;;;;;9.97;9.17;;;22.50;36.60;;;;;;4956455;29;20231;-68
2021/09/07 03:57:54;;;;;;;9.97;9.27;;;22.40;36.50;;;;;;4956503;29;20254;-68
2021/09/07 04:00:20;;;;;;;9.10;8.40;;;22.50;36.50;;;;;;4956040;29;20211;-67
2021/09/07 04:02:45;;;;;;;9.37;8.57;;;22.50;36.50;;;;;;4956528;28;20194;-67
2021/09/07 04:05:11;;;;;;;9.67;8.97;;;22.50;36.50;;;;;;4956329;29;20175;-67
2021/09/07 04:07:37;;;;;;;9.97;9.17;;;22.50;36.50;;;;;;4956370;29;20175;-67
2021/09/07 04:10:04;;;;;;;9.83;9.03;;;22.50;36.60;;;;;;4956106;28;20191;-67
2021/09/07 04:12:29;;;;;;;15.37;10.10;;;22.40;36.50;;;;;;4956358;28;20418;-67
2021/09/07 04:14:55;;;;;;;10.07;8.37;;;22.40;36.70;;;;;;4956176;29;20419;-67
2021/09/07 04:17:21;;;;;;;9.40;8.70;;;22.40;36.60;;;;;;4956202;29;20238;-67
2021/09/07 04:19:47;;;;;;;8.90;8.20;;;22.50;36.50;;;;;;4955810;28;20176;-67
2021/09/07 04:22:12;;;;;;;10.70;9.70;;;22.40;36.10;;;;;;4956065;29;20270;-67
2021/09/07 04:24:38;;;;;;;9.80;9.00;;;22.40;35.60;;;;;;4955967;28;20831;-67
2021/09/07 04:27:04;;;;;;;10.10;9.30;;;22.40;35.40;;;;;;4956090;28;20710;-67
2021/09/07 04:29:29;;;;;;;11.10;9.13;;;22.40;35.10;;;;;;4955845;29;20211;-67
2021/09/07 04:31:55;;;;;;;9.80;9.00;;;22.40;34.90;;;;;;4955766;28;20206;-67
2021/09/07 04:34:20;;;;;;;9.87;9.10;;;22.40;34.60;;;;;;4955917;29;20175;-67
2021/09/07 04:36:46;;;;;;;11.20;10.20;;;22.40;34.50;;;;;;4955624;29;20628;-68
2021/09/07 04:39:12;;;;;;;9.80;8.97;;;22.30;34.40;;;;;;4950382;28;20639;-68
2021/09/07 04:41:37;;;;;;;10.20;9.30;;;22.30;34.20;;;;;;4955294;29;20198;-68
2021/09/07 04:44:03;;;;;;;9.60;8.87;;;22.30;34.40;;;;;;4955756;29;20182;-69
2021/09/07 04:46:29;;;;;;;10.37;9.57;;;22.20;34.40;;;;;;4954901;28;20179;-68
2021/09/07 04:48:55;;;;;;;10.73;9.83;;;22.30;34.50;;;;;;4955039;28;20211;-68
2021/09/07 04:51:24;;;;;;;10.17;9.47;;;22.30;34.30;;;;;;4955243;28;20462;-68
2021/09/07 04:53:50;;;;;;;11.50;10.50;;;22.30;34.30;;;;;;4954954;28;20175;-68
2021/09/07 04:56:18;;;;;;;11.00;10.00;;;22.30;33.90;;;;;;4953856;28;20415;-67
2021/09/07 04:58:44;;;;;;;10.27;9.57;;;22.30;34.00;;;;;;4954700;29;20431;-68
2021/09/07 05:01:09;;;;;;;11.13;10.23;;;22.30;34.10;;;;;;4954737;28;20447;-71
2021/09/07 05:03:35;;;;;;;11.60;10.57;;;22.30;34.20;;;;;;4955273;29;20167;-69
2021/09/07 05:06:00;;;;;;;11.80;10.73;;;22.30;34.10;;;;;;4955308;28;20183;-67
2021/09/07 05:08:27;;;;;;;12.00;10.87;;;22.30;34.10;;;;;;4953530;28;20642;-68
2021/09/07 05:10:52;;;;;;;10.80;9.90;;;22.20;33.90;;;;;;4955393;28;20203;-70
2021/09/07 05:13:18;;;;;;;11.00;10.20;;;22.30;34.00;;;;;;4955024;28;20418;-69
2021/09/07 05:15:43;;;;;;;11.20;10.10;;;22.20;33.70;;;;;;4971593;28;20178;-68
2021/09/07 05:18:09;;;;;;;10.53;9.63;;;22.20;33.70;;;;;;4973937;28;20210;-69
2021/09/07 05:20:34;;;;;;;11.30;10.30;;;22.20;33.60;;;;;;4973962;28;20206;-67
2021/09/07 05:23:00;;;;;;;10.33;9.33;;;22.20;33.60;;;;;;4973975;28;20586;-68
2021/09/07 05:25:28;;;;;;;10.10;9.30;;;22.20;33.50;;;;;;4973951;28;20716;-68
2021/09/07 05:27:54;;;;;;;11.13;10.13;;;22.20;33.50;;;;;;4972868;28;20620;-68
2021/09/07 05:30:20;;;;;;;11.23;10.20;;;22.20;33.40;;;;;;4972091;28;20429;-68
2021/09/07 05:32:46;;;;;;;10.87;9.97;;;22.20;33.30;;;;;;4973535;28;20413;-67
2021/09/07 05:35:11;;;;;;;10.97;10.07;;;22.20;33.30;;;;;;4973677;28;20175;-69
2021/09/07 05:37:40;;;;;;;11.37;10.30;;;22.20;33.30;;;;;;4973749;28;20215;-68
2021/09/07 05:40:08;;;;;;;10.10;9.20;;;22.20;33.20;;;;;;4973423;28;20241;-70
2021/09/07 05:42:34;;;;;;;10.43;9.50;;;22.20;33.20;;;;;;4973336;28;20465;-72
2021/09/07 05:44:59;;;;;;;10.73;9.83;;;22.20;33.20;;;;;;4973539;28;20406;-71
2021/09/07 05:47:25;;;;;;;10.03;9.23;;;22.20;33.10;;;;;;4973380;28;20600;-71
2021/09/07 05:49:50;;;;;;;10.20;9.30;;;22.20;33.10;;;;;;4973262;28;20182;-71
2021/09/07 05:52:16;;;;;;;9.87;9.07;;;22.20;33.10;;;;;;4973609;28;20638;-69
2021/09/07 05:54:41;;;;;;;10.40;9.60;;;22.10;32.90;;;;;;4973227;28;20179;-69
2021/09/07 05:57:07;;;;;;;10.47;9.47;;;22.20;32.90;;;;;;4973300;28;20560;-70
2021/09/07 05:59:32;;;;;;;11.30;10.40;;;22.10;32.40;;;;;;4973052;28;20166;-66
2021/09/07 06:01:58;;;;;;;11.53;10.43;;;22.10;32.30;;;;;;4972228;28;20289;-69
2021/09/07 06:04:23;;;;;;;11.37;10.27;;;22.10;32.40;;;;;;4972703;28;20183;-69
2021/09/07 06:06:49;;;;;;;11.10;10.13;;;22.10;32.20;;;;;;4972528;28;20202;-69
2021/09/07 06:09:14;;;;;;;11.77;10.70;;;22.10;31.90;;;;;;4972302;28;20226;-67
2021/09/07 06:11:40;;;;;;;11.53;10.40;;;22.10;31.70;;;;;;4972573;28;20198;-68
2021/09/07 06:14:05;;;;;;;14.40;10.90;;;22.10;31.70;;;;;;4972983;28;20202;-69
2021/09/07 06:16:31;;;;;;;12.27;11.10;;;22.10;31.70;;;;;;4972317;28;20633;-69
2021/09/07 06:18:56;;;;;;;11.03;10.13;;;22.00;31.60;;;;;;4972461;28;20641;-69
2021/09/07 06:21:22;;;;;;;11.50;10.40;;;22.00;31.70;;;;;;4972497;28;20300;-69
2021/09/07 06:23:47;;;;;;;11.37;10.20;;;22.00;31.70;;;;;;4972143;28;20170;-69
2021/09/07 06:26:13;;;;;;;11.60;10.50;;;22.00;31.80;;;;;;4972506;28;20171;-69
2021/09/07 06:28:39;;;;;;;11.40;10.17;;;21.90;31.90;;;;;;4972068;28;20179;-69
2021/09/07 06:31:05;;;;;;;12.80;11.50;;;21.90;31.70;;;;;;4971928;28;20218;-69
2021/09/07 06:33:30;;;;;;;11.23;10.10;;;21.90;31.60;;;;;;4972212;28;20449;-69
2021/09/07 06:35:56;;;;;;;12.80;11.13;;;22.00;31.60;;;;;;4972301;28;20171;-69
2021/09/07 06:38:21;;;;;;;12.83;11.73;;;21.90;31.60;;;;;;4971997;28;20217;-69
2021/09/07 06:40:47;;;;;;;13.37;12.17;;;21.90;31.50;;;;;;4972291;28;20669;-69
2021/09/07 06:43:12;;;;;;;13.17;11.87;;;21.90;31.50;;;;;;4972371;28;20182;-69
2021/09/07 06:45:38;;;;;;;12.40;11.20;;;21.90;31.50;;;;;;4972341;28;20533;-69
2021/09/07 06:48:04;;;;;;;12.70;11.60;;;21.90;31.50;;;;;;4972045;28;20179;-68
2021/09/07 06:50:29;;;;;;;12.03;10.83;;;21.90;31.50;;;;;;4972027;28;20190;-68
2021/09/07 06:52:55;;;;;;;10.93;10.03;;;21.90;31.50;;;;;;4971970;28;20893;-68
2021/09/07 06:55:20;;;;;;;13.10;11.70;;;21.90;31.70;;;;;;4974169;28;20549;-69
2021/09/07 06:57:46;;;;;;;14.23;10.90;;;21.90;31.90;;;;;;4975546;28;20939;-69
2021/09/07 07:00:12;;;;;;;12.33;11.27;;;21.80;31.80;;;;;;4939761;28;1029888;-68
2021/09/07 07:02:39;;;;;;;12.97;11.77;;;21.80;31.60;;;;;;4976819;28;20199;-69
2021/09/07 07:05:06;;;;;;;13.63;11.77;;;21.80;31.40;;;;;;4976784;28;20503;-69
2021/09/07 07:07:31;;;;;;;12.10;11.10;;;21.80;31.40;;;;;;4976827;28;20429;-69
2021/09/07 07:09:57;;;;;;;12.93;11.77;;;21.80;31.40;;;;;;4976235;28;20422;-69
2021/09/07 07:12:22;;;;;;;15.63;13.50;;;21.80;31.40;;;;;;4976803;28;20243;-68
2021/09/07 07:14:48;;;;;;;12.37;11.23;;;21.80;31.70;;;;;;4976450;28;20186;-68
2021/09/07 07:17:13;;;;;;;13.67;12.23;;;21.80;31.60;;;;;;4976712;28;20666;-69
2021/09/07 07:19:42;;;;;;;14.10;12.00;;;21.80;31.60;;;;;;4976486;28;20182;-69
2021/09/07 07:22:07;;;;;;;13.30;12.00;;;21.80;31.40;;;;;;4976444;28;20185;-70
2021/09/07 07:24:33;;;;;;;13.17;11.93;;;21.80;31.40;;;;;;4975713;28;20862;-69
2021/09/07 07:26:59;;;;;;;16.13;12.63;;;21.80;31.40;;;;;;4975334;28;20183;-69
2021/09/07 07:29:25;;;;;;;12.70;11.50;;;21.80;31.50;;;;;;4976048;28;20171;-69
2021/09/07 07:31:50;;;;;;;13.73;11.90;;;21.80;31.70;;;;;;4976222;28;20878;-69
2021/09/07 07:34:17;;;;;;;12.53;11.43;;;21.70;31.70;;;;;;4976108;28;20657;-69
2021/09/07 07:36:43;;;;;;;12.70;11.50;;;21.70;31.70;;;;;;4951729;28;20206;-71
2021/09/07 07:39:08;;;;;;;13.40;12.00;;;21.80;31.90;;;;;;4954894;28;20918;-72
2021/09/07 07:41:34;;;;;;;15.57;14.07;;;21.70;31.80;;;;;;4955160;28;20199;-69
2021/09/07 07:43:59;;;;;;;12.40;11.33;;;21.70;31.90;;;;;;4955933;29;20175;-68
2021/09/07 07:46:25;;;;;;;15.00;11.90;;;21.80;32.20;;;;;;4955391;29;20250;-68
2021/09/07 07:48:50;;;;;;;15.43;12.60;;;21.80;32.30;;;;;;4955068;29;20186;-68
2021/09/07 07:51:17;;;;;;;13.83;12.43;;;21.80;32.50;;;;;;4956173;28;20199;-69
2021/09/07 07:53:42;;;;;;;17.30;14.77;;;21.80;32.50;;;;;;4956533;28;20730;-69
2021/09/07 07:56:08;;;;;;;16.27;14.77;;;21.80;32.60;;;;;;4956414;29;20497;-68
2021/09/07 07:58:34;;;;;;;15.37;14.03;;;21.80;32.50;;;;;;4956379;29;20175;-68
2021/09/07 08:01:00;;;;;;;15.73;14.33;;;21.80;32.70;;;;;;4956007;28;20573;-68
2021/09/07 08:03:26;;;;;;;16.80;15.20;;;21.80;32.80;;;;;;4955095;28;20267;-68
2021/09/07 08:05:51;;;;;;;18.33;14.57;;;21.90;33.10;;;;;;4955633;28;20502;-68
2021/09/07 08:08:17;;;;;;;17.03;14.27;;;21.90;33.10;;;;;;4971057;28;20191;-68
2021/09/07 08:10:43;;;;;;;17.23;15.40;;;21.90;33.00;;;;;;4956131;28;20206;-69
2021/09/07 08:13:08;;;;;;;16.33;14.87;;;21.90;33.10;;;;;;4956273;29;20615;-68
2021/09/07 08:15:34;;;;;;;16.30;13.40;;;21.90;33.20;;;;;;4956215;29;20187;-68
2021/09/07 08:18:00;;;;;;;16.50;13.60;;;21.90;33.30;;;;;;4956208;28;20211;-68
2021/09/07 08:20:31;;;;;;;14.93;13.57;;;21.90;33.20;;;;;;4955850;28;20427;-68
2021/09/07 08:22:58;;;;;;;14.57;13.17;;;21.90;33.30;;;;;;4956185;28;20211;-68
2021/09/07 08:25:23;;;;;;;15.03;13.50;;;21.90;33.40;;;;;;4956136;28;20494;-69
2021/09/07 08:27:49;;;;;;;20.20;15.30;;;21.90;33.40;;;;;;4956011;29;20502;-68
2021/09/07 08:30:15;;;;;;;15.50;14.00;;;21.90;33.50;;;;;;4955914;28;20262;-69
2021/09/07 08:32:42;;;;;;;15.87;13.33;;;21.90;33.60;;;;;;4955834;28;20175;-68
2021/09/07 08:35:11;;;;;;;15.80;14.17;;;21.90;33.60;;;;;;4955705;28;20430;-68
2021/09/07 08:37:37;;;;;;;15.30;13.83;;;22.00;33.80;;;;;;4955771;28;20482;-68
2021/09/07 08:40:05;;;;;;;18.77;13.50;;;22.00;33.80;;;;;;4955474;28;20976;-69
2021/09/07 08:42:33;;;;;;;14.80;13.30;;;22.00;33.90;;;;;;4955718;28;20418;-68
2021/09/07 08:44:59;;;;;;;16.67;14.97;;;21.90;33.90;;;;;;4955627;28;20463;-69
2021/09/07 08:47:25;;;;;;;14.73;13.00;;;22.00;34.00;;;;;;4955642;28;20411;-68
2021/09/07 08:49:50;;;;;;;16.53;13.97;;;22.00;34.70;;;;;;4955394;28;20423;-68
2021/09/07 08:52:18;;;;;;;14.33;12.87;;;21.90;33.90;;;;;;4955505;29;20264;-68
2021/09/07 08:54:44;;;;;;;25.80;12.80;;;22.00;34.00;;;;;;4955567;28;20167;-68
2021/09/07 08:57:10;;;;;;;14.00;12.50;;;22.00;34.10;;;;;;4955246;28;20699;-68
2021/09/07 08:59:36;;;;;;;15.40;13.90;;;22.00;34.00;;;;;;4955223;28;20498;-68
2021/09/07 09:02:12;;;;;;;14.17;12.90;;;22.00;34.00;;;;;;4955249;28;20207;-68
2021/09/07 09:04:38;;;;;;;13.00;11.73;;;22.00;34.00;;;;;;4955494;28;20674;-68
2021/09/07 09:07:04;;;;;;;14.57;12.90;;;22.00;34.10;;;;;;4955278;29;21056;-68
2021/09/07 09:09:38;;;;;;;13.83;12.70;;;22.00;34.20;;;;;;4955062;29;20259;-68
2021/09/07 09:12:05;;;;;;;14.67;12.90;;;22.00;34.30;;;;;;4955090;28;20685;-68
2021/09/07 09:14:40;;;;;;;13.90;12.63;;;22.00;34.30;;;;;;4955178;28;20449;-67
2021/09/07 09:17:18;;;;;;;16.67;14.90;;;22.10;34.40;;;;;;4954220;28;20976;-68
2021/09/07 09:20:02;;;;;;;13.63;12.40;;;22.10;34.50;;;;;;4954724;28;20403;-67
2021/09/07 09:22:46;;;;;;;14.57;13.17;;;22.10;35.20;;;;;;4955103;28;20509;-67
2021/09/07 09:25:22;;;;;;;14.00;12.80;;;22.10;34.40;;;;;;4955055;28;20419;-67
2021/09/07 09:28:09;;;;;;;13.87;12.60;;;22.10;34.30;;;;;;4954928;28;20435;-67
2021/09/07 09:30:36;;;;;;;14.30;13.00;;;22.10;34.30;;;;;;4954591;28;20517;-68
2021/09/07 09:33:03;;;;;;;11.87;10.90;;;22.10;34.40;;;;;;4954898;28;20443;-68
2021/09/07 09:35:29;;;;;;;12.90;11.70;;;22.10;34.50;;;;;;4969374;28;20455;-68
2021/09/07 09:38:01;;;;;;;13.47;12.27;;;22.20;34.50;;;;;;4954908;29;20463;-68
2021/09/07 09:40:29;;;;;;;12.70;11.40;;;22.20;34.40;;;;;;4954641;28;20447;-68
2021/09/07 09:42:56;;;;;;;13.80;12.60;;;22.20;34.30;;;;;;4954697;28;20459;-69
2021/09/07 09:45:30;;;;;;;14.40;12.27;;;22.20;34.30;;;;;;4954837;28;20414;-68
2021/09/07 09:47:56;;;;;;;14.77;12.70;;;22.30;34.40;;;;;;4954521;28;20422;-68
2021/09/07 09:50:23;;;;;;;13.97;12.60;;;22.30;34.40;;;;;;4954157;28;20442;-68
2021/09/07 09:52:49;;;;;;;13.60;12.40;;;22.30;34.40;;;;;;4954536;28;20450;-68
2021/09/07 09:55:16;;;;;;;13.60;12.30;;;22.30;34.40;;;;;;4954323;29;20782;-68
2021/09/07 09:57:42;;;;;;;12.80;11.70;;;22.30;34.40;;;;;;4954356;28;20473;-69
2021/09/07 10:00:13;;;;;;;12.67;11.57;;;22.30;34.40;;;;;;4954081;28;20431;-68
2021/09/07 10:02:43;;;;;;;12.33;11.30;;;22.40;34.30;;;;;;4954492;28;20430;-68
2021/09/07 10:05:10;;;;;;;12.97;11.90;;;22.40;34.30;;;;;;4954293;28;20449;-68
2021/09/07 10:07:36;;;;;;;12.80;11.70;;;22.40;34.30;;;;;;4954196;28;20423;-68
2021/09/07 10:10:02;;;;;;;11.83;10.73;;;22.40;34.40;;;;;;4953739;28;20445;-67
2021/09/07 10:12:44;;;;;;;12.60;11.50;;;22.40;34.40;;;;;;4968932;28;20183;-68
2021/09/07 10:15:21;;;;;;;12.47;11.30;;;22.40;34.30;;;;;;4954246;28;20498;-68
2021/09/07 10:17:49;;;;;;;12.47;11.40;;;22.50;34.40;;;;;;4954290;28;20580;-68
2021/09/07 10:26:38;;;;;;;12.53;11.10;;;22.50;34.50;;;;;;4953898;28;20415;-68
2021/09/07 10:29:08;;;;;;;12.67;11.47;;;22.50;34.50;;;;;;4953665;29;20820;-68
2021/09/07 10:31:42;;;;;;;11.83;10.83;;;22.50;34.50;;;;;;4953959;28;20842;-68
2021/09/07 10:34:08;;;;;;;13.20;12.10;;;22.50;34.60;;;;;;4953894;28;20410;-68
2021/09/07 10:36:37;;;;;;;12.90;11.80;;;22.50;34.60;;;;;;4953767;28;20517;-68
2021/09/07 10:39:07;;;;;;;12.53;11.40;;;22.50;34.60;;;;;;4953551;28;20407;-68
2021/09/07 10:41:33;;;;;;;11.97;11.07;;;22.50;34.60;;;;;;4953864;28;20450;-68
2021/09/07 10:44:06;;;;;;;11.13;10.13;;;22.50;34.50;;;;;;4953599;29;20712;-68
2021/09/07 10:46:38;;;;;;;11.70;10.67;;;22.50;34.50;;;;;;4953348;28;20190;-68
2021/09/07 10:49:21;;;;;;;11.43;10.50;;;22.60;34.60;;;;;;4953439;29;20448;-68
2021/09/07 10:52:07;;;;;;;10.47;9.53;;;22.60;34.50;;;;;;4953616;28;20501;-68
2021/09/07 10:54:33;;;;;;;11.73;10.73;;;22.60;34.50;;;;;;4953808;28;20464;-68
2021/09/07 10:57:01;;;;;;;10.97;10.00;;;22.60;34.60;;;;;;4953559;28;20446;-68
2021/09/07 10:59:50;;;;;;;11.83;10.73;;;22.60;34.60;;;;;;4953743;29;20915;-68
2021/09/07 11:02:40;;;;;;;12.20;11.20;;;22.60;34.70;;;;;;4953465;28;20514;-68
2021/09/07 11:05:34;;;;;;;12.90;11.70;;;22.60;34.60;;;;;;4953644;28;20551;-68
2021/09/07 11:08:12;;;;;;;11.43;10.43;;;22.60;34.50;;;;;;4953608;28;20442;-68
2021/09/07 11:10:52;;;;;;;11.20;10.20;;;22.60;34.50;;;;;;4953479;28;20505;-68
2021/09/07 11:13:28;;;;;;;11.33;10.37;;;22.60;34.40;;;;;;4953810;28;20418;-68
2021/09/07 11:16:01;;;;;;;12.17;11.07;;;22.60;34.30;;;;;;4953611;28;20497;-68
2021/09/07 11:18:29;;;;;;;12.20;11.00;;;22.60;34.30;;;;;;4953254;28;20549;-68
2021/09/07 11:20:57;;;;;;;11.17;10.27;;;22.60;34.20;;;;;;4953237;28;20485;-68
2021/09/07 11:23:32;;;;;;;10.67;9.77;;;22.70;34.30;;;;;;4953665;28;20813;-68
2021/09/07 11:26:10;;;;;;;10.07;9.33;;;22.70;34.30;;;;;;4953352;28;20505;-69
2021/09/07 11:28:38;;;;;;;11.40;10.40;;;22.70;34.30;;;;;;4953288;28;20902;-68
2021/09/07 11:31:05;;;;;;;10.80;10.00;;;22.70;34.30;;;;;;4953218;28;20521;-68
2021/09/07 11:33:34;;;;;;;11.07;10.17;;;22.70;34.30;;;;;;4953587;28;20418;-68
2021/09/07 11:36:08;;;;;;;11.13;10.23;;;22.70;34.40;;;;;;4953490;28;20450;-68
2021/09/07 11:38:35;;;;;;;11.00;10.10;;;22.70;34.30;;;;;;4953146;28;20459;-68
2021/09/07 11:41:09;;;;;;;11.20;10.30;;;22.70;34.30;;;;;;4954824;28;20526;-68
2021/09/07 11:43:42;;;;;;;10.40;9.50;;;22.70;34.30;;;;;;4956858;28;20421;-68
2021/09/07 11:46:13;;;;;;;11.60;10.63;;;22.70;34.30;;;;;;4956779;28;20391;-68
2021/09/07 11:48:42;;;;;;;11.43;10.53;;;22.70;34.40;;;;;;4956650;29;20779;-69
2021/09/07 11:51:09;;;;;;;10.30;9.50;;;22.70;34.40;;;;;;4956757;28;20431;-68
2021/09/07 11:53:35;;;;;;;10.10;9.30;;;22.70;34.40;;;;;;4956648;28;20506;-68
2021/09/07 11:56:00;;;;;;;10.40;9.60;;;22.70;34.40;;;;;;4956600;29;20860;-68
2021/09/07 11:58:35;;;;;;;9.70;9.00;;;22.70;34.20;;;;;;4956174;28;20561;-68
2021/09/07 12:01:08;;;;;;;9.97;9.10;;;22.70;34.30;;;;;;4956287;28;20208;-68
2021/09/07 12:03:41;;;;;;;10.57;9.67;;;22.70;34.20;;;;;;4956423;28;20863;-68
2021/09/07 12:06:07;;;;;;;10.87;9.90;;;22.70;34.20;;;;;;4956448;29;20791;-68
2021/09/07 12:08:45;;;;;;;11.97;11.00;;;22.70;34.20;;;;;;4956129;28;20474;-68
2021/09/07 12:11:21;;;;;;;10.80;9.90;;;22.70;34.20;;;;;;4956247;28;20566;-68
2021/09/07 12:14:04;;;;;;;10.60;9.70;;;22.70;34.30;;;;;;4956331;29;20415;-68
2021/09/07 12:16:30;;;;;;;10.87;9.97;;;22.70;34.40;;;;;;4956226;28;20419;-68
2021/09/07 12:18:56;;;;;;;11.00;10.10;;;22.70;34.30;;;;;;4955965;28;20905;-68
2021/09/07 12:21:24;;;;;;;9.63;8.90;;;22.70;34.30;;;;;;4955982;28;20437;-68
2021/09/07 12:23:51;;;;;;;10.20;9.30;;;22.70;34.40;;;;;;4956268;28;20234;-68
2021/09/07 12:26:17;;;;;;;9.70;8.90;;;22.70;34.30;;;;;;4956051;28;20551;-68
2021/09/07 12:28:43;;;;;;;9.30;8.50;;;22.70;34.20;;;;;;4955940;28;20457;-68
2021/09/07 12:31:10;;;;;;;9.67;8.97;;;22.70;34.30;;;;;;4955924;28;20497;-68
2021/09/07 12:33:41;;;;;;;8.97;8.27;;;22.70;34.20;;;;;;4955904;28;20419;-68
2021/09/07 12:36:06;;;;;;;9.83;9.10;;;22.70;34.20;;;;;;4956119;28;20494;-68
2021/09/07 12:38:32;;;;;;;9.43;8.70;;;22.70;34.20;;;;;;4955613;29;20461;-68